Time;durP1;ratioP1;P1;durP2;ratioP2;P2;SDS_P1;SDS_P2;PMS_P1;PMS_P2;Temp;Humidity;BMP_temperature;BMP_pressure;BME280_temperature;BME280_humidity;BME280_pressure;Samples;Min_cycle;Max_cycle;Signal;HPM_P1;HPM_P2
2023/10/30 00:02:23;;;;;;;1.63;0.80;;;20.70;80.20;;;;;;5034682;28;20805;-86
2023/10/30 00:04:51;;;;;;;1.23;0.80;;;20.70;80.50;;;;;;5034696;28;20780;-86
2023/10/30 00:07:17;;;;;;;1.67;0.70;;;20.70;80.40;;;;;;5034501;28;20827;-86
2023/10/30 00:09:44;;;;;;;1.27;1.00;;;20.70;80.60;;;;;;5034524;28;20441;-86
2023/10/30 00:12:11;;;;;;;1.47;0.90;;;20.70;80.30;;;;;;5033255;28;20500;-86
2023/10/30 00:14:38;;;;;;;1.20;0.80;;;20.70;80.30;;;;;;5032813;28;20886;-86
2023/10/30 00:17:06;;;;;;;1.23;0.90;;;20.70;80.40;;;;;;5032910;28;20453;-86
2023/10/30 00:19:33;;;;;;;1.10;0.70;;;20.70;80.50;;;;;;5032946;28;20457;-86
2023/10/30 00:22:00;;;;;;;2.20;0.70;;;20.70;80.20;;;;;;5025293;28;20456;-86
2023/10/30 00:24:29;;;;;;;2.70;1.10;;;20.70;80.40;;;;;;5021278;28;20449;-86
2023/10/30 00:26:56;;;;;;;1.10;0.80;;;20.60;80.30;;;;;;5014240;28;20453;-86
2023/10/30 00:29:23;;;;;;;1.17;0.70;;;20.70;80.40;;;;;;5014277;28;20445;-86
2023/10/30 00:31:50;;;;;;;3.10;0.90;;;20.80;80.50;;;;;;5014329;28;20493;-88
2023/10/30 00:34:18;;;;;;;1.10;0.80;;;20.70;80.30;;;;;;5014347;28;20798;-94
2023/10/30 00:36:45;;;;;;;1.00;0.70;;;20.70;80.20;;;;;;5017524;28;20444;-86
2023/10/30 00:39:12;;;;;;;1.00;0.70;;;20.70;80.20;;;;;;5013076;28;20510;-86
2023/10/30 00:41:39;;;;;;;1.00;0.70;;;20.60;80.00;;;;;;5014257;28;20447;-87
2023/10/30 00:44:06;;;;;;;2.40;1.00;;;20.60;80.20;;;;;;5014008;28;20529;-87
2023/10/30 00:46:32;;;;;;;2.37;0.97;;;20.60;79.90;;;;;;5014021;28;20474;-86
2023/10/30 00:48:59;;;;;;;1.03;0.70;;;20.70;80.40;;;;;;5014074;28;20442;-86
2023/10/30 00:51:27;;;;;;;1.20;0.80;;;20.70;80.60;;;;;;5013902;28;20500;-86
2023/10/30 00:53:54;;;;;;;1.30;0.83;;;20.60;80.00;;;;;;5014081;28;20521;-86
2023/10/30 00:56:21;;;;;;;1.00;0.70;;;20.70;80.10;;;;;;5013844;28;20442;-87
2023/10/30 00:58:48;;;;;;;2.20;0.73;;;20.70;80.30;;;;;;5013921;28;20530;-95
2023/10/30 01:01:16;;;;;;;1.70;0.90;;;20.60;80.10;;;;;;5013892;28;20450;-86
2023/10/30 01:07:06;;;;;;;1.10;0.70;;;20.60;80.00;;;;;;5016684;28;20916;-86
2023/10/30 01:09:33;;;;;;;1.23;0.87;;;20.60;80.10;;;;;;5028587;28;20438;-86
2023/10/30 01:12:00;;;;;;;1.20;0.97;;;20.60;80.20;;;;;;5033521;28;20495;-94
2023/10/30 01:14:27;;;;;;;1.47;1.10;;;20.70;80.30;;;;;;5033425;28;20449;-86
2023/10/30 01:16:53;;;;;;;1.30;0.93;;;20.60;80.00;;;;;;5020606;28;20492;-86
2023/10/30 01:19:20;;;;;;;1.00;0.70;;;20.60;80.10;;;;;;5033298;28;20472;-86
2023/10/30 01:21:47;;;;;;;1.20;0.80;;;20.60;79.90;;;;;;5033280;28;20539;-86
2023/10/30 01:24:15;;;;;;;1.10;0.80;;;20.60;80.00;;;;;;5032374;28;20519;-92
2023/10/30 01:26:42;;;;;;;1.07;0.70;;;20.60;79.90;;;;;;5033078;28;20503;-87
2023/10/30 01:29:09;;;;;;;1.73;0.80;;;20.80;80.00;;;;;;5033310;28;20464;-86
2023/10/30 01:31:36;;;;;;;1.20;0.90;;;20.60;79.90;;;;;;5033050;28;20495;-86
2023/10/30 01:34:03;;;;;;;1.00;0.60;;;20.70;80.00;;;;;;5033209;28;20821;-86
2023/10/30 01:36:30;;;;;;;1.60;0.93;;;20.60;79.80;;;;;;5027228;28;20520;-86
2023/10/30 01:38:57;;;;;;;1.30;0.90;;;20.60;79.70;;;;;;5022274;28;20864;-86
2023/10/30 01:41:26;;;;;;;1.10;0.80;;;20.60;79.80;;;;;;5013318;28;20534;-86
2023/10/30 01:43:52;;;;;;;2.03;0.80;;;20.60;79.70;;;;;;5013320;28;20438;-86
2023/10/30 01:46:19;;;;;;;1.10;0.80;;;20.60;79.80;;;;;;5013160;28;20446;-86
2023/10/30 01:48:47;;;;;;;1.10;0.80;;;20.60;80.00;;;;;;5013341;28;20447;-86
2023/10/30 01:51:14;;;;;;;2.20;0.90;;;20.60;79.90;;;;;;5013134;28;20481;-86
2023/10/30 01:53:41;;;;;;;1.10;0.70;;;20.60;79.70;;;;;;5013298;28;20447;-86
2023/10/30 01:56:09;;;;;;;1.43;0.80;;;20.60;79.70;;;;;;5013314;28;20435;-94
2023/10/30 01:58:38;;;;;;;1.70;0.80;;;20.60;79.70;;;;;;5016119;28;20459;-86
2023/10/30 02:01:05;;;;;;;2.53;0.80;;;20.60;79.70;;;;;;5022096;28;20881;-86
2023/10/30 02:03:33;;;;;;;1.47;0.83;;;20.60;79.60;;;;;;5027907;28;20437;-86
2023/10/30 02:06:00;;;;;;;1.17;1.07;;;20.60;79.80;;;;;;5032912;28;20818;-86
2023/10/30 02:08:27;;;;;;;1.70;0.80;;;20.60;80.00;;;;;;5032915;28;20443;-87
2023/10/30 02:10:54;;;;;;;1.37;0.70;;;20.60;79.70;;;;;;5032758;28;20923;-86
2023/10/30 02:13:21;;;;;;;1.20;0.77;;;20.60;79.70;;;;;;5022181;28;20453;-86
2023/10/30 02:15:49;;;;;;;1.37;0.77;;;20.60;79.90;;;;;;5012927;28;21004;-86
2023/10/30 02:18:16;;;;;;;1.20;0.77;;;20.60;80.00;;;;;;5013119;28;20437;-86
2023/10/30 02:20:43;;;;;;;1.10;0.80;;;20.60;79.70;;;;;;5012886;28;20548;-86
2023/10/30 02:23:09;;;;;;;1.10;0.83;;;20.60;79.60;;;;;;5012904;28;20455;-86
2023/10/30 02:25:37;;;;;;;2.57;1.10;;;20.60;79.70;;;;;;5013005;28;20439;-94
2023/10/30 02:28:05;;;;;;;2.50;0.80;;;20.60;79.80;;;;;;5012988;28;20434;-86
2023/10/30 02:30:31;;;;;;;1.00;0.70;;;20.60;79.60;;;;;;5012866;28;20451;-86
2023/10/30 02:32:58;;;;;;;1.00;0.73;;;20.60;79.80;;;;;;5013101;28;20526;-86
2023/10/30 02:35:25;;;;;;;1.20;0.70;;;20.50;79.70;;;;;;5015358;28;20439;-86
2023/10/30 02:37:52;;;;;;;1.80;0.80;;;20.50;79.60;;;;;;5028334;28;20447;-86
2023/10/30 02:40:18;;;;;;;2.77;0.90;;;20.60;80.00;;;;;;5036217;28;20508;-86
2023/10/30 02:42:47;;;;;;;1.20;0.70;;;20.50;79.60;;;;;;5026206;28;20800;-86
2023/10/30 02:45:13;;;;;;;1.47;0.70;;;20.50;79.60;;;;;;5016362;28;20448;-86
2023/10/30 02:47:40;;;;;;;1.00;0.70;;;20.50;79.50;;;;;;5016366;28;20933;-87
2023/10/30 02:50:08;;;;;;;1.00;0.70;;;20.60;79.90;;;;;;5016319;28;20461;-86
2023/10/30 02:52:36;;;;;;;1.20;0.70;;;20.50;79.60;;;;;;5016136;28;21088;-86
2023/10/30 02:55:03;;;;;;;0.90;0.60;;;20.60;80.30;;;;;;5020298;28;20454;-87
2023/10/30 02:57:30;;;;;;;1.40;1.07;;;20.60;79.80;;;;;;5025571;28;20510;-87
2023/10/30 02:59:58;;;;;;;1.47;0.90;;;20.60;79.80;;;;;;5035875;28;20467;-86
2023/10/30 03:02:25;;;;;;;1.23;0.87;;;20.60;79.70;;;;;;5030035;28;20452;-95
2023/10/30 03:04:52;;;;;;;1.20;0.80;;;20.50;79.50;;;;;;5035810;28;20441;-87
2023/10/30 03:07:18;;;;;;;1.40;0.70;;;20.60;79.70;;;;;;5035791;28;20447;-86
2023/10/30 03:09:45;;;;;;;1.00;0.70;;;20.60;79.60;;;;;;5035869;28;20439;-95
2023/10/30 03:12:12;;;;;;;1.40;0.80;;;20.60;79.60;;;;;;5035812;28;20485;-86
2023/10/30 03:14:39;;;;;;;1.00;0.77;;;20.60;79.60;;;;;;5035692;28;20966;-86
2023/10/30 03:17:07;;;;;;;1.10;0.80;;;20.50;79.60;;;;;;5035524;28;20444;-86
2023/10/30 03:19:34;;;;;;;1.43;0.90;;;20.60;79.50;;;;;;5035470;28;20460;-87
2023/10/30 03:22:00;;;;;;;1.50;0.93;;;20.50;79.50;;;;;;5035516;28;20444;-87
2023/10/30 03:24:26;;;;;;;1.30;0.80;;;20.60;79.50;;;;;;5035541;28;20795;-86
2023/10/30 03:26:53;;;;;;;1.40;0.73;;;20.50;79.50;;;;;;5035285;28;20526;-87
2023/10/30 03:29:20;;;;;;;1.37;0.97;;;20.50;79.60;;;;;;5035277;28;20291;-86
2023/10/30 03:31:48;;;;;;;1.30;0.80;;;20.50;79.50;;;;;;5035159;28;20480;-87
2023/10/30 03:34:18;;;;;;;1.10;0.70;;;20.50;79.50;;;;;;5020326;28;20454;-87
2023/10/30 03:36:45;;;;;;;1.23;0.90;;;20.50;79.40;;;;;;5017524;28;20894;-86
2023/10/30 03:39:12;;;;;;;1.30;0.80;;;20.50;79.50;;;;;;5029640;28;20569;-86
2023/10/30 03:41:38;;;;;;;1.20;0.70;;;20.50;79.50;;;;;;5025333;28;20465;-86
2023/10/30 03:44:08;;;;;;;1.33;0.77;;;20.60;79.60;;;;;;5019562;28;20445;-86
2023/10/30 03:46:35;;;;;;;1.77;0.80;;;20.50;79.40;;;;;;5014349;28;20509;-86
2023/10/30 03:49:02;;;;;;;1.33;0.80;;;20.60;79.80;;;;;;5015245;28;20445;-86
2023/10/30 03:51:30;;;;;;;1.00;0.70;;;20.50;79.60;;;;;;5015115;28;20445;-86
2023/10/30 03:53:57;;;;;;;1.23;0.80;;;20.60;79.50;;;;;;5015011;28;20530;-86
2023/10/30 03:56:24;;;;;;;1.60;0.80;;;20.50;79.70;;;;;;5026602;28;20446;-86
2023/10/30 03:58:51;;;;;;;1.00;0.70;;;20.50;79.50;;;;;;5032654;28;20449;-87
2023/10/30 04:01:17;;;;;;;1.00;0.70;;;20.50;79.50;;;;;;5034805;28;20444;-86
2023/10/30 04:03:44;;;;;;;1.10;0.70;;;20.50;79.40;;;;;;5034681;28;20527;-86
2023/10/30 04:06:11;;;;;;;1.83;1.40;;;20.50;79.40;;;;;;5016532;28;20445;-86
2023/10/30 04:08:39;;;;;;;1.70;1.00;;;20.50;79.50;;;;;;5014738;28;20441;-86
2023/10/30 04:11:10;;;;;;;1.20;0.80;;;20.50;79.40;;;;;;5014716;28;20504;-86
2023/10/30 04:13:37;;;;;;;1.67;0.93;;;20.50;79.30;;;;;;5013550;28;20489;-95
2023/10/30 04:16:04;;;;;;;1.10;0.70;;;20.50;79.40;;;;;;5014017;28;20840;-86
2023/10/30 04:18:31;;;;;;;1.10;0.80;;;20.50;79.40;;;;;;5014572;28;20948;-86
2023/10/30 04:20:58;;;;;;;1.03;0.70;;;20.50;79.40;;;;;;5014068;28;20526;-86
2023/10/30 04:23:25;;;;;;;0.90;0.60;;;20.60;79.60;;;;;;5014357;28;20453;-86
2023/10/30 04:25:53;;;;;;;1.07;0.80;;;20.50;79.30;;;;;;5014549;28;20442;-86
2023/10/30 04:28:20;;;;;;;1.00;0.70;;;20.50;79.50;;;;;;5014465;28;20440;-86
2023/10/30 04:30:47;;;;;;;1.40;0.93;;;20.50;79.40;;;;;;5014447;28;20440;-87
2023/10/30 04:33:14;;;;;;;1.00;0.70;;;20.50;79.40;;;;;;5014298;28;21099;-86
2023/10/30 04:35:41;;;;;;;1.10;0.80;;;20.60;79.40;;;;;;5015320;28;20444;-95
2023/10/30 04:38:08;;;;;;;1.40;0.97;;;20.50;79.50;;;;;;5033821;28;20521;-86
2023/10/30 04:40:35;;;;;;;1.10;0.70;;;20.50;79.30;;;;;;5015666;28;20447;-86
2023/10/30 04:43:03;;;;;;;1.30;0.70;;;20.40;79.30;;;;;;5022640;28;20478;-86
2023/10/30 04:45:30;;;;;;;1.00;0.70;;;20.50;80.40;;;;;;5033948;28;20529;-86
2023/10/30 04:47:57;;;;;;;1.30;0.70;;;20.50;79.40;;;;;;5033891;28;20449;-94
2023/10/30 04:50:23;;;;;;;1.10;0.70;;;20.50;79.40;;;;;;5024067;28;20458;-86
2023/10/30 04:52:50;;;;;;;1.70;0.90;;;20.50;79.40;;;;;;5018162;28;20937;-86
2023/10/30 04:55:17;;;;;;;1.10;0.77;;;20.40;79.30;;;;;;5033790;28;20507;-86
2023/10/30 04:57:44;;;;;;;1.23;0.80;;;20.50;79.40;;;;;;5024716;28;20446;-86
2023/10/30 05:00:13;;;;;;;1.20;0.70;;;20.50;79.40;;;;;;5018138;28;20460;-87
2023/10/30 05:02:42;;;;;;;1.00;0.60;;;20.50;79.30;;;;;;5022936;28;20446;-86
2023/10/30 05:05:09;;;;;;;1.43;0.90;;;20.50;79.40;;;;;;5033876;28;20530;-87
2023/10/30 05:07:36;;;;;;;1.10;0.80;;;20.50;79.40;;;;;;5017232;28;20452;-87
2023/10/30 05:10:03;;;;;;;1.20;0.93;;;20.40;79.30;;;;;;5013786;28;20448;-95
2023/10/30 05:12:30;;;;;;;1.17;0.87;;;20.40;79.20;;;;;;5013523;28;20482;-86
2023/10/30 05:14:58;;;;;;;1.10;0.73;;;20.50;79.30;;;;;;5018831;28;20473;-86
2023/10/30 05:17:26;;;;;;;1.20;0.70;;;20.50;79.30;;;;;;5023456;28;20457;-87
2023/10/30 05:19:53;;;;;;;0.93;0.70;;;20.40;79.20;;;;;;5021922;28;20473;-86
2023/10/30 05:22:20;;;;;;;1.00;0.70;;;20.40;79.30;;;;;;5013547;28;20445;-86
2023/10/30 05:24:47;;;;;;;1.00;0.70;;;20.40;79.20;;;;;;5017866;28;20436;-88
2023/10/30 05:27:13;;;;;;;1.20;0.90;;;20.40;79.20;;;;;;5013571;28;20448;-88
2023/10/30 05:29:40;;;;;;;1.03;0.70;;;20.40;79.20;;;;;;5013568;28;20432;-86
2023/10/30 05:32:07;;;;;;;1.10;0.80;;;20.40;79.20;;;;;;5016588;28;20507;-95
2023/10/30 05:34:36;;;;;;;1.57;0.80;;;20.40;79.20;;;;;;5022558;28;20457;-86
2023/10/30 05:37:06;;;;;;;1.00;0.80;;;20.40;79.20;;;;;;5013557;28;20504;-86
2023/10/30 05:39:33;;;;;;;1.00;0.80;;;20.40;79.10;;;;;;5023043;28;20509;-86
2023/10/30 05:42:00;;;;;;;1.13;0.73;;;20.50;79.20;;;;;;5016264;28;20528;-86
2023/10/30 05:44:29;;;;;;;1.37;0.70;;;20.40;79.20;;;;;;5033038;28;20458;-86
2023/10/30 05:46:56;;;;;;;1.03;0.70;;;20.40;79.10;;;;;;5033030;28;20813;-86
2023/10/30 05:49:23;;;;;;;1.20;0.83;;;20.40;79.20;;;;;;5033104;28;20555;-86
2023/10/30 05:51:51;;;;;;;1.40;0.93;;;20.50;79.30;;;;;;5023505;28;20454;-86
2023/10/30 05:54:18;;;;;;;1.13;0.90;;;20.40;79.20;;;;;;5013067;28;20500;-86
2023/10/30 05:56:44;;;;;;;1.20;0.70;;;20.40;79.10;;;;;;5030708;28;20449;-87
2023/10/30 05:59:11;;;;;;;1.20;0.80;;;20.40;79.10;;;;;;5032969;28;20440;-87
2023/10/30 06:01:38;;;;;;;1.17;0.80;;;20.40;79.20;;;;;;5033040;28;20962;-86
2023/10/30 06:04:05;;;;;;;1.20;0.80;;;20.40;79.30;;;;;;5032206;28;20932;-86
2023/10/30 06:06:32;;;;;;;1.70;1.00;;;20.40;79.20;;;;;;4997774;28;20930;-86
2023/10/30 06:09:00;;;;;;;1.53;0.90;;;20.40;79.20;;;;;;5004111;28;20528;-86
2023/10/30 06:11:27;;;;;;;1.10;0.70;;;20.50;79.30;;;;;;5007178;28;20435;-87
2023/10/30 06:13:54;;;;;;;1.10;0.80;;;20.50;79.30;;;;;;5012136;28;20488;-86
2023/10/30 06:16:21;;;;;;;1.40;0.90;;;20.40;79.20;;;;;;5013563;28;20454;-86
2023/10/30 06:18:48;;;;;;;1.60;0.90;;;20.40;79.20;;;;;;5012410;28;20452;-86
2023/10/30 06:21:16;;;;;;;1.33;0.73;;;20.40;79.30;;;;;;5031721;28;20464;-86
2023/10/30 06:23:43;;;;;;;1.20;0.80;;;20.40;79.10;;;;;;5036010;28;20440;-94
2023/10/30 06:26:12;;;;;;;1.90;0.83;;;20.40;79.30;;;;;;5037270;28;20486;-94
2023/10/30 06:28:39;;;;;;;1.30;0.80;;;20.40;79.10;;;;;;5037684;28;20466;-94
2023/10/30 06:31:14;;;;;;;1.10;0.70;;;20.40;79.20;;;;;;5036912;28;20434;-92
2023/10/30 06:33:40;;;;;;;1.93;0.80;;;20.40;79.40;;;;;;5036642;28;20993;-86
2023/10/30 06:36:08;;;;;;;1.60;0.80;;;20.40;79.50;;;;;;5036528;28;20440;-86
2023/10/30 06:38:35;;;;;;;1.00;0.70;;;20.40;79.40;;;;;;5036500;28;20807;-87
2023/10/30 06:41:02;;;;;;;1.00;0.70;;;20.40;79.50;;;;;;5023092;28;20473;-93
2023/10/30 06:43:32;;;;;;;2.33;0.80;;;20.40;79.20;;;;;;5016724;28;20439;-94
2023/10/30 06:46:02;;;;;;;1.60;0.90;;;20.40;79.50;;;;;;5016869;28;20497;-86
2023/10/30 06:48:29;;;;;;;1.87;0.93;;;20.50;79.90;;;;;;5016788;28;20461;-93
2023/10/30 06:50:56;;;;;;;1.67;0.83;;;20.40;79.90;;;;;;5016635;28;20462;-93
2023/10/30 06:53:23;;;;;;;3.40;0.90;;;20.60;80.20;;;;;;4997063;28;20606;-94
2023/10/30 06:55:50;;;;;;;1.20;0.70;;;20.40;80.20;;;;;;4996799;28;20443;-86
2023/10/30 06:58:17;;;;;;;1.40;0.90;;;20.50;80.50;;;;;;4998690;28;20981;-90
2023/10/30 07:00:45;;;;;;;1.30;1.10;;;20.50;80.50;;;;;;5015829;28;20464;-90
2023/10/30 07:03:12;;;;;;;1.60;1.10;;;20.50;80.80;;;;;;5016391;28;20445;-91
2023/10/30 07:05:39;;;;;;;1.40;0.87;;;20.50;81.60;;;;;;5016100;28;21031;-89
2023/10/30 07:08:05;;;;;;;2.90;0.90;;;20.60;80.90;;;;;;5020146;28;20467;-87
2023/10/30 07:10:32;;;;;;;1.60;1.07;;;20.50;81.10;;;;;;5028961;28;20454;-95
2023/10/30 07:12:59;;;;;;;1.10;0.90;;;20.60;80.90;;;;;;5035097;28;20493;-86
2023/10/30 07:15:26;;;;;;;2.13;1.10;;;20.50;81.00;;;;;;5032040;28;20462;-87
2023/10/30 07:17:55;;;;;;;1.70;0.93;;;20.50;81.40;;;;;;5032831;28;20535;-96
2023/10/30 07:20:22;;;;;;;3.60;1.30;;;20.50;81.10;;;;;;5033913;28;20442;-89
2023/10/30 07:22:49;;;;;;;2.60;1.23;;;20.60;81.80;;;;;;5005109;28;20663;-84
2023/10/30 07:25:16;;;;;;;1.53;1.10;;;20.60;81.80;;;;;;5003157;28;20465;-84
2023/10/30 07:27:43;;;;;;;3.20;1.37;;;20.60;81.60;;;;;;5016820;28;20456;-92
2023/10/30 07:30:11;;;;;;;4.90;1.33;;;20.60;81.90;;;;;;5007897;28;20463;-91
2023/10/30 07:32:38;;;;;;;3.50;1.30;;;20.60;81.90;;;;;;4999244;28;20470;-89
2023/10/30 07:35:07;;;;;;;4.00;1.20;;;20.50;81.80;;;;;;5015251;23;20432;-89
2023/10/30 07:37:38;;;;;;;3.97;1.57;;;20.50;81.70;;;;;;5041786;28;20475;-89
2023/10/30 07:40:09;;;;;;;2.03;1.80;;;20.50;81.60;;;;;;5041493;28;20460;-92
2023/10/30 07:42:36;;;;;;;3.93;1.30;;;20.50;81.70;;;;;;5072303;23;20515;-90
2023/10/30 07:45:03;;;;;;;2.27;1.27;;;20.50;81.70;;;;;;5062558;28;20511;-90
2023/10/30 07:47:30;;;;;;;1.30;1.03;;;20.50;81.50;;;;;;5067811;28;20434;-89
2023/10/30 07:50:00;;;;;;;3.73;1.07;;;20.50;81.30;;;;;;5080712;22;21014;-90
2023/10/30 07:52:28;;;;;;;2.23;1.13;;;20.50;81.00;;;;;;5035728;23;20488;-90
2023/10/30 07:54:55;;;;;;;1.57;1.30;;;20.60;80.80;;;;;;5049714;23;20483;-95
2023/10/30 07:57:22;;;;;;;1.30;0.90;;;20.60;80.50;;;;;;5037732;28;20536;-91
2023/10/30 07:59:49;;;;;;;4.30;1.23;;;20.60;80.30;;;;;;5035498;28;20845;-91
2023/10/30 08:02:16;;;;;;;1.83;1.07;;;20.60;80.00;;;;;;5035370;28;20507;-90
2023/10/30 08:04:43;;;;;;;2.93;1.10;;;20.70;79.80;;;;;;5035580;28;20484;-90
2023/10/30 08:07:10;;;;;;;8.30;1.60;;;20.70;79.50;;;;;;5035413;28;20446;-91
2023/10/30 08:09:39;;;;;;;65.37;18.50;;;20.80;79.40;;;;;;5035738;28;20453;-91
2023/10/30 08:12:06;;;;;;;30.47;10.17;;;20.80;79.40;;;;;;5035753;28;20441;-91
2023/10/30 08:14:33;;;;;;;46.23;14.90;;;20.80;79.30;;;;;;5035295;28;20580;-90
2023/10/30 08:17:02;;;;;;;30.07;8.40;;;20.80;79.00;;;;;;5035422;28;20482;-91
2023/10/30 08:19:30;;;;;;;34.80;12.70;;;20.80;78.80;;;;;;5035465;28;20541;-91
2023/10/30 08:21:57;;;;;;;49.47;13.30;;;21.00;79.00;;;;;;5035446;28;20929;-90
2023/10/30 08:24:24;;;;;;;51.87;16.70;;;20.80;78.80;;;;;;5035606;28;20438;-90
2023/10/30 08:26:52;;;;;;;64.23;17.10;;;20.90;79.00;;;;;;5035226;28;20505;-90
2023/10/30 08:29:19;;;;;;;58.50;18.27;;;20.90;79.20;;;;;;5035290;28;20516;-91
2023/10/30 08:31:46;;;;;;;118.80;34.60;;;21.00;79.80;;;;;;5034897;28;20453;-91
2023/10/30 08:34:13;;;;;;;177.77;54.87;;;21.10;80.10;;;;;;5035174;28;20547;-90
2023/10/30 08:36:40;;;;;;;133.53;49.87;;;21.10;78.20;;;;;;5035263;28;20469;-91
2023/10/30 08:39:07;;;;;;;101.03;37.77;;;21.10;77.50;;;;;;5035117;28;20444;-90
2023/10/30 08:41:35;;;;;;;77.33;26.23;;;21.20;77.40;;;;;;5034692;28;20525;-90
2023/10/30 08:44:05;;;;;;;79.20;27.80;;;21.30;77.60;;;;;;5034675;28;20961;-89
2023/10/30 08:46:33;;;;;;;69.33;26.17;;;21.30;77.70;;;;;;5034881;28;20442;-90
2023/10/30 08:49:00;;;;;;;58.70;22.73;;;21.30;77.70;;;;;;5034644;28;20965;-89
2023/10/30 08:51:27;;;;;;;72.80;26.53;;;21.30;77.50;;;;;;5035192;28;20458;-90
2023/10/30 08:53:54;;;;;;;66.50;25.73;;;21.30;78.00;;;;;;5034557;28;20489;-89
2023/10/30 08:56:22;;;;;;;81.70;27.80;;;21.40;78.10;;;;;;5039493;28;20439;-94
2023/10/30 08:58:50;;;;;;;69.23;28.90;;;21.50;78.00;;;;;;5036464;28;20450;-94
2023/10/30 09:01:20;;;;;;;71.50;27.70;;;21.60;77.80;;;;;;5034478;28;20921;-92
2023/10/30 09:03:46;;;;;;;62.70;25.00;;;21.60;77.50;;;;;;5035087;28;20450;-91
2023/10/30 09:06:14;;;;;;;83.63;28.97;;;21.70;77.60;;;;;;5034327;28;20443;-91
2023/10/30 09:08:41;;;;;;;66.53;25.57;;;21.70;77.40;;;;;;5034723;28;20437;-91
2023/10/30 09:11:08;;;;;;;56.97;27.27;;;21.70;77.30;;;;;;5034163;28;20451;-92
2023/10/30 09:13:35;;;;;;;66.30;24.53;;;21.70;77.20;;;;;;5034377;28;20569;-90
2023/10/30 09:16:02;;;;;;;56.87;22.57;;;21.70;77.20;;;;;;5034250;28;20486;-92
2023/10/30 09:18:30;;;;;;;55.63;24.77;;;21.60;77.20;;;;;;5034393;28;20532;-91
2023/10/30 09:20:57;;;;;;;55.93;22.80;;;21.60;77.50;;;;;;5034442;28;20444;-92
2023/10/30 09:23:26;;;;;;;67.83;24.40;;;21.60;77.50;;;;;;5035782;28;20435;-92
2023/10/30 09:25:53;;;;;;;58.77;22.70;;;21.60;77.60;;;;;;5034256;28;20442;-87
2023/10/30 09:28:20;;;;;;;62.77;24.97;;;21.70;77.70;;;;;;5034247;28;20859;-88
2023/10/30 09:30:47;;;;;;;56.40;23.33;;;21.70;77.50;;;;;;5022826;28;20454;-92
2023/10/30 09:33:14;;;;;;;64.67;20.30;;;21.80;77.10;;;;;;5014864;28;20457;-95
2023/10/30 09:35:42;;;;;;;50.23;22.37;;;21.90;77.00;;;;;;5011265;28;20449;-88
2023/10/30 09:38:09;;;;;;;46.97;20.27;;;21.90;76.90;;;;;;5011330;28;20866;-94
2023/10/30 09:40:36;;;;;;;53.73;22.33;;;21.90;76.70;;;;;;5004778;28;20448;-93
2023/10/30 09:43:07;;;;;;;52.37;21.97;;;21.90;77.00;;;;;;5006632;28;20448;-95
2023/10/30 09:45:36;;;;;;;48.77;22.00;;;21.80;77.10;;;;;;5013009;28;20964;-90
2023/10/30 09:48:05;;;;;;;41.90;18.90;;;21.80;77.30;;;;;;5013992;28;20822;-91
2023/10/30 09:50:34;;;;;;;44.70;19.70;;;21.80;77.40;;;;;;5013373;28;20856;-95
2023/10/30 09:53:03;;;;;;;42.63;19.87;;;21.80;77.50;;;;;;5013392;28;20458;-94
2023/10/30 09:55:29;;;;;;;45.10;18.03;;;21.70;77.40;;;;;;5013033;28;20478;-91
2023/10/30 09:57:56;;;;;;;45.57;18.67;;;21.80;77.30;;;;;;5012600;28;20457;-94
2023/10/30 10:00:23;;;;;;;43.20;18.50;;;21.80;77.20;;;;;;5013123;28;20469;-91
2023/10/30 10:02:52;;;;;;;37.90;17.20;;;22.00;77.00;;;;;;5013056;28;20443;-92
2023/10/30 10:05:19;;;;;;;41.80;15.73;;;22.00;76.70;;;;;;5013057;28;20471;-94
2023/10/30 10:07:46;;;;;;;41.00;18.00;;;21.90;76.60;;;;;;5012970;28;20478;-92
2023/10/30 10:10:18;;;;;;;44.07;17.73;;;21.90;76.80;;;;;;5012916;28;20447;-94
2023/10/30 10:12:49;;;;;;;35.33;16.57;;;21.80;77.00;;;;;;5013259;28;20800;-94
2023/10/30 10:15:16;;;;;;;36.73;16.80;;;21.80;77.00;;;;;;5012935;28;20498;-93
2023/10/30 10:17:44;;;;;;;36.73;16.10;;;21.80;77.10;;;;;;5013131;28;20457;-94
2023/10/30 10:20:12;;;;;;;35.80;15.20;;;21.80;77.20;;;;;;5013585;28;20471;-90
2023/10/30 10:22:40;;;;;;;32.27;16.43;;;21.80;77.30;;;;;;5013834;28;20441;-93
2023/10/30 10:25:10;;;;;;;31.03;15.50;;;21.80;77.20;;;;;;5013256;28;20443;-96
2023/10/30 10:27:39;;;;;;;27.87;14.47;;;21.80;77.30;;;;;;5013283;28;20435;-94
2023/10/30 10:30:07;;;;;;;27.70;16.03;;;21.80;77.20;;;;;;5014024;28;20527;-94
2023/10/30 10:32:34;;;;;;;36.23;15.13;;;21.80;77.50;;;;;;5013242;28;20446;-94
2023/10/30 10:35:02;;;;;;;28.13;15.20;;;21.70;77.60;;;;;;5001208;28;20551;-90
2023/10/30 10:37:30;;;;;;;30.00;14.87;;;21.80;78.80;;;;;;4993401;28;20472;-91
2023/10/30 10:39:57;;;;;;;44.00;15.80;;;21.70;77.70;;;;;;4993030;28;20444;-96
2023/10/30 10:42:25;;;;;;;34.80;13.93;;;21.70;77.60;;;;;;4993315;28;20935;-96
2023/10/30 10:44:55;;;;;;;35.27;16.17;;;21.80;77.80;;;;;;4993588;28;20439;-93
2023/10/30 10:47:23;;;;;;;32.73;13.10;;;21.70;77.90;;;;;;4993699;28;20444;-92
2023/10/30 10:49:50;;;;;;;33.97;13.00;;;21.70;77.90;;;;;;4993627;28;20486;-93
2023/10/30 10:52:20;;;;;;;26.10;13.13;;;21.70;78.00;;;;;;4993700;28;20444;-96
2023/10/30 10:54:52;;;;;;;24.03;13.23;;;21.70;78.10;;;;;;4993454;28;20487;-93
2023/10/30 10:57:21;;;;;;;26.37;11.63;;;21.70;79.00;;;;;;4997007;28;20447;-96
2023/10/30 10:59:50;;;;;;;29.33;11.93;;;21.80;78.30;;;;;;4997202;28;20466;-96
2023/10/30 11:02:21;;;;;;;26.43;12.67;;;21.70;78.30;;;;;;4996271;28;20443;-92
2023/10/30 11:04:50;;;;;;;23.43;11.93;;;21.70;78.40;;;;;;4996823;28;20447;-96
2023/10/30 11:07:26;;;;;;;22.73;10.90;;;21.70;78.40;;;;;;4996290;28;20459;-91
2023/10/30 11:09:58;;;;;;;26.60;12.77;;;21.70;78.40;;;;;;4997287;28;20455;-95
2023/10/30 11:12:39;;;;;;;20.00;10.10;;;21.70;78.40;;;;;;4997273;28;20932;-91
2023/10/30 11:15:15;;;;;;;21.60;10.67;;;21.70;78.50;;;;;;4997225;28;20497;-96
2023/10/30 11:18:00;;;;;;;23.80;11.37;;;21.70;78.50;;;;;;4980219;28;20440;-91
2023/10/30 11:20:28;;;;;;;16.70;9.53;;;21.70;78.40;;;;;;4996885;28;20466;-91
2023/10/30 11:22:55;;;;;;;22.33;11.30;;;21.70;78.40;;;;;;4997426;28;20440;-96
2023/10/30 11:25:44;;;;;;;24.47;10.20;;;21.70;78.50;;;;;;4997555;28;20452;-93
2023/10/30 11:28:11;;;;;;;23.03;10.13;;;21.70;78.60;;;;;;4996555;28;20436;-95
2023/10/30 11:30:42;;;;;;;17.37;9.03;;;21.70;78.50;;;;;;4996504;28;20436;-96
2023/10/30 11:33:20;;;;;;;18.53;9.97;;;21.70;78.50;;;;;;4996492;28;20450;-92
2023/10/30 11:35:52;;;;;;;21.60;9.40;;;21.70;78.50;;;;;;4996617;28;21036;-96
2023/10/30 11:38:21;;;;;;;20.97;10.40;;;21.70;78.50;;;;;;4996765;28;20454;-95
2023/10/30 11:41:04;;;;;;;17.83;9.70;;;21.60;78.60;;;;;;4996431;28;20539;-96
2023/10/30 11:43:33;;;;;;;14.70;9.10;;;21.60;79.50;;;;;;4996957;28;20451;-95
2023/10/30 11:46:03;;;;;;;14.03;8.20;;;21.60;78.70;;;;;;4996678;28;20432;-93
2023/10/30 11:48:32;;;;;;;16.57;8.47;;;21.60;78.70;;;;;;4996721;28;20474;-96
2023/10/30 11:51:00;;;;;;;16.47;8.87;;;21.60;78.70;;;;;;4996620;28;20436;-95
2023/10/30 11:53:35;;;;;;;17.23;8.20;;;21.60;79.40;;;;;;4998432;28;20511;-96
2023/10/30 11:56:09;;;;;;;17.47;8.83;;;21.70;78.60;;;;;;4998028;28;20483;-87
2023/10/30 11:58:36;;;;;;;12.53;7.10;;;21.60;78.60;;;;;;4995680;28;20448;-90
2023/10/30 12:01:05;;;;;;;15.63;8.73;;;21.60;78.80;;;;;;4995864;28;20522;-91
2023/10/30 12:03:33;;;;;;;13.73;7.20;;;21.60;78.80;;;;;;4995648;28;20445;-91
2023/10/30 12:06:00;;;;;;;17.33;7.47;;;21.70;78.80;;;;;;4995420;28;20456;-91
2023/10/30 12:08:27;;;;;;;15.10;7.10;;;21.60;78.70;;;;;;4995021;28;20452;-91
2023/10/30 12:10:54;;;;;;;11.30;6.40;;;21.60;78.70;;;;;;4995755;28;20452;-89
2023/10/30 12:13:22;;;;;;;14.20;7.10;;;21.60;78.70;;;;;;4995337;28;21038;-92
2023/10/30 12:15:48;;;;;;;12.37;7.50;;;21.60;78.70;;;;;;4995487;28;20523;-88
2023/10/30 12:18:15;;;;;;;14.00;8.20;;;21.60;78.80;;;;;;5034513;28;20463;-90
2023/10/30 12:20:43;;;;;;;10.60;6.93;;;21.50;78.90;;;;;;5034491;28;20438;-88
2023/10/30 12:23:11;;;;;;;17.57;7.23;;;21.50;80.00;;;;;;5034702;28;20438;-88
2023/10/30 12:25:38;;;;;;;15.60;6.00;;;21.40;79.30;;;;;;5035127;28;20445;-87
2023/10/30 12:28:05;;;;;;;11.30;5.77;;;21.40;79.50;;;;;;5034353;28;20446;-87
2023/10/30 12:30:34;;;;;;;13.90;6.77;;;21.40;79.60;;;;;;5034591;28;20449;-88
2023/10/30 12:33:01;;;;;;;12.37;6.67;;;21.40;79.80;;;;;;5034306;28;20448;-89
2023/10/30 12:35:29;;;;;;;9.87;6.33;;;21.40;79.80;;;;;;5034361;28;20488;-88
2023/10/30 12:37:57;;;;;;;11.93;6.47;;;21.30;79.90;;;;;;5034201;28;20452;-88
2023/10/30 12:40:24;;;;;;;12.67;6.00;;;21.30;80.00;;;;;;5034693;28;20533;-90
2023/10/30 12:42:52;;;;;;;11.23;6.00;;;21.40;80.20;;;;;;5034241;28;20438;-88
2023/10/30 12:45:20;;;;;;;12.70;6.30;;;21.30;80.10;;;;;;5034250;28;20508;-89
2023/10/30 12:47:49;;;;;;;10.43;6.13;;;21.30;80.20;;;;;;5034566;28;20442;-88